createdAt,value
2022-10-28T00:01:25.396Z,98321.47
2022-10-28T00:03:56.680Z,98308.38
2022-10-28T00:06:31.738Z,98317.91
2022-10-28T00:09:00.446Z,98318.97
2022-10-28T00:11:34.192Z,98314.38
2022-10-28T00:14:06.129Z,98322.09
2022-10-28T00:16:37.266Z,98314.19
2022-10-28T00:19:07.940Z,98306.09
2022-10-28T00:21:37.978Z,98308.78
2022-10-28T00:24:07.891Z,98299.25
2022-10-28T00:26:39.005Z,98298.88
2022-10-28T00:29:10.841Z,98300.72
2022-10-28T00:31:39.387Z,98306.75
2022-10-28T00:34:16.659Z,98309.25
2022-10-28T00:36:46.949Z,98305.72
2022-10-28T00:39:21.134Z,98296.19
2022-10-28T00:41:59.034Z,98300.25
2022-10-28T00:44:59.163Z,98294.25
2022-10-28T00:47:56.395Z,98315.09
2022-10-28T00:50:51.937Z,98306.56
2022-10-28T00:53:28.435Z,98306.97
2022-10-28T00:56:00.283Z,98310.13
2022-10-28T00:58:28.709Z,98304.50
2022-10-28T01:00:56.717Z,98301.38
2022-10-28T01:03:25.126Z,98299.94
2022-10-28T01:05:53.357Z,98294.56
2022-10-28T01:08:21.353Z,98302.03
2022-10-28T01:11:34.165Z,98300.38
2022-10-28T01:14:30.605Z,98303.50
2022-10-28T01:17:39.605Z,98296.22
2022-10-28T01:21:22.359Z,98293.53
2022-10-28T01:24:11.671Z,98294.38
2022-10-28T01:27:02.929Z,98295.19
2022-10-28T01:29:53.977Z,98297.47
2022-10-28T01:32:40.326Z,98297.06
2022-10-28T01:35:40.057Z,98297.06
2022-10-28T01:38:48.764Z,98298.31
2022-10-28T01:41:45.255Z,98301.41
2022-10-28T01:44:32.569Z,98298.31
2022-10-28T01:47:28.692Z,98300.59
2022-10-28T01:50:02.025Z,98295.63
2022-10-28T01:52:32.071Z,98303.72
2022-10-28T01:55:17.902Z,98302.47
2022-10-28T01:57:47.969Z,98296.03
2022-10-28T02:00:16.288Z,98296.84
2022-10-28T02:02:45.208Z,98288.75
2022-10-28T02:05:48.614Z,98297.47
2022-10-28T02:08:19.033Z,98290.00
2022-10-28T02:11:23.113Z,98294.78
2022-10-28T02:14:48.033Z,98292.28
2022-10-28T02:17:29.382Z,98296.22
2022-10-28T02:20:18.566Z,98287.28
2022-10-28T02:23:15.503Z,98290.84
2022-10-28T02:25:56.338Z,98285.00
2022-10-28T02:28:49.923Z,98280.00
2022-10-28T02:31:44.213Z,98269.19
2022-10-28T02:34:37.170Z,98271.03
2022-10-28T02:37:13.453Z,98276.66
2022-10-28T02:39:46.394Z,98274.16
2022-10-28T02:42:28.519Z,98278.75
2022-10-28T02:45:13.934Z,98274.78
2022-10-28T02:47:51.518Z,98277.91
2022-10-28T02:50:25.667Z,98272.50
2022-10-28T02:52:58.528Z,98266.91
2022-10-28T02:55:36.051Z,98270.66
2022-10-28T02:58:05.180Z,98267.97
2022-10-28T03:00:32.947Z,98262.56
2022-10-28T03:03:00.756Z,98266.69
2022-10-28T03:05:28.609Z,98275.03
2022-10-28T03:07:56.427Z,98272.53
2022-10-28T03:10:24.467Z,98273.75
2022-10-28T03:12:52.285Z,98280.22
2022-10-28T03:15:20.160Z,98281.25
2022-10-28T03:17:47.913Z,98283.97
2022-10-28T03:20:15.885Z,98284.41
2022-10-28T03:22:44.370Z,98290.22
2022-10-28T03:25:12.243Z,98294.38
2022-10-28T03:27:41.492Z,98289.81
2022-10-28T03:30:10.099Z,98281.91
2022-10-28T03:32:40.986Z,98281.91
2022-10-28T03:35:09.054Z,98280.44
2022-10-28T03:37:36.927Z,98282.72
2022-10-28T03:40:07.969Z,98276.47
2022-10-28T03:42:38.852Z,98262.75
2022-10-28T03:45:10.312Z,98254.03
2022-10-28T03:47:38.096Z,98240.50
2022-10-28T03:50:06.471Z,98240.69
2022-10-28T03:52:34.261Z,98248.00
2022-10-28T03:55:02.010Z,98249.00
2022-10-28T03:57:34.087Z,98244.66
2022-10-28T04:00:02.183Z,98243.41
2022-10-28T04:02:39.403Z,98238.84
2022-10-28T04:05:07.923Z,98234.06
2022-10-28T04:07:35.867Z,98229.88
2022-10-28T04:10:04.020Z,98239.47
2022-10-28T04:12:31.790Z,98235.31
2022-10-28T04:15:00.287Z,98230.31
2022-10-28T04:17:28.052Z,98233.41
2022-10-28T04:19:55.946Z,98235.69
2022-10-28T04:22:23.708Z,98237.75
2022-10-28T04:24:52.938Z,98236.13
2022-10-28T04:27:21.534Z,98235.06
2022-10-28T04:29:49.343Z,98230.25
2022-10-28T04:32:17.079Z,98237.97
2022-10-28T04:34:44.842Z,98233.00
2022-10-28T04:37:14.911Z,98236.53
2022-10-28T04:39:44.743Z,98237.16
2022-10-28T04:42:12.535Z,98242.34
2022-10-28T04:44:40.257Z,98245.06
2022-10-28T04:47:08.116Z,98245.06
2022-10-28T04:49:38.145Z,98242.16
2022-10-28T04:52:08.803Z,98239.44
2022-10-28T04:54:38.746Z,98233.81
2022-10-28T04:57:06.713Z,98223.38
2022-10-28T04:59:34.571Z,98209.66
2022-10-28T05:02:02.535Z,98209.66
2022-10-28T05:04:30.423Z,98195.72
2022-10-28T05:06:58.188Z,98200.91
2022-10-28T05:09:25.936Z,98201.53
2022-10-28T05:11:54.449Z,98195.50
2022-10-28T05:14:22.257Z,98194.69
2022-10-28T05:16:50.040Z,98188.25
2022-10-28T05:19:17.831Z,98194.69
2022-10-28T05:21:45.549Z,98186.56
2022-10-28T05:24:13.263Z,98197.41
2022-10-28T05:26:41.027Z,98199.28
2022-10-28T05:29:08.761Z,98203.88
2022-10-28T05:31:36.546Z,98205.13
2022-10-28T05:34:04.289Z,98197.03
2022-10-28T05:36:32.072Z,98196.56
2022-10-28T05:38:59.935Z,98208.88
2022-10-28T05:41:27.749Z,98199.66
2022-10-28T05:43:55.555Z,98192.81
2022-10-28T05:46:23.345Z,98186.94
2022-10-28T05:48:51.099Z,98187.97
2022-10-28T05:51:18.839Z,98185.06
2022-10-28T05:53:46.629Z,98184.84
2022-10-28T05:56:14.401Z,98187.09
2022-10-28T05:58:42.221Z,98182.53
2022-10-28T06:01:10.362Z,98189.41
2022-10-28T06:03:38.188Z,98191.91
2022-10-28T06:06:06.266Z,98181.69
2022-10-28T06:08:36.246Z,98173.16
2022-10-28T06:11:08.531Z,98175.03
2022-10-28T06:13:36.525Z,98173.97
2022-10-28T06:16:05.070Z,98176.88
2022-10-28T06:18:32.910Z,98180.41
2022-10-28T06:21:00.756Z,98182.91
2022-10-28T06:23:28.612Z,98186.84
2022-10-28T06:26:02.244Z,98189.34
2022-10-28T06:28:30.721Z,98185.41
2022-10-28T06:31:04.210Z,98190.22
2022-10-28T06:33:32.468Z,98189.34
2022-10-28T06:36:01.065Z,98187.19
2022-10-28T06:38:29.925Z,98188.22
2022-10-28T06:40:58.208Z,98188.63
2022-10-28T06:43:26.039Z,98195.88
2022-10-28T06:45:55.701Z,98195.84
2022-10-28T06:48:25.198Z,98202.50
2022-10-28T06:50:57.789Z,98203.53
2022-10-28T06:53:29.437Z,98210.97
2022-10-28T06:56:00.163Z,98228.66
2022-10-28T06:58:28.483Z,98243.97
2022-10-28T07:00:56.830Z,98246.88
2022-10-28T07:03:25.135Z,98246.47
2022-10-28T07:05:53.338Z,98243.31
2022-10-28T07:08:21.541Z,98242.09
2022-10-28T07:10:57.812Z,98241.28
2022-10-28T07:13:26.497Z,98249.81
2022-10-28T07:15:57.074Z,98258.13
2022-10-28T07:18:27.336Z,98252.50
2022-10-28T07:20:59.752Z,98254.31
2022-10-28T07:23:29.247Z,98247.81
2022-10-28T07:25:57.842Z,98253.44
2022-10-28T07:28:26.995Z,98258.59
2022-10-28T07:30:55.332Z,98255.91
2022-10-28T07:33:23.382Z,98259.84
2022-10-28T07:35:51.490Z,98259.63
2022-10-28T07:38:19.550Z,98255.66
2022-10-28T07:40:47.658Z,98258.38
2022-10-28T07:43:15.733Z,98256.06
2022-10-28T07:45:43.917Z,98253.34
2022-10-28T07:48:12.118Z,98257.50
2022-10-28T07:50:43.227Z,98260.19
2022-10-28T07:53:11.303Z,98266.22
2022-10-28T07:55:39.383Z,98263.91
2022-10-28T07:58:07.443Z,98268.66
2022-10-28T08:00:35.801Z,98272.38
2022-10-28T08:03:04.082Z,98273.41
2022-10-28T08:05:32.178Z,98268.59
2022-10-28T08:08:00.144Z,98280.84
2022-10-28T08:10:28.224Z,98277.94
2022-10-28T08:13:00.955Z,98275.63
2022-10-28T08:15:30.017Z,98282.25
2022-10-28T08:17:58.212Z,98280.56
2022-10-28T08:20:26.297Z,98275.53
2022-10-28T08:22:54.632Z,98272.38
2022-10-28T08:25:22.939Z,98273.63
2022-10-28T08:27:50.993Z,98269.84
2022-10-28T08:30:19.101Z,98272.34
2022-10-28T08:32:47.180Z,98275.03
2022-10-28T08:35:15.263Z,98277.97
2022-10-28T08:37:46.203Z,98270.44
2022-10-28T08:40:14.300Z,98275.88
2022-10-28T08:42:49.715Z,98278.38
2022-10-28T08:45:31.468Z,98272.94
2022-10-28T08:48:33.737Z,98278.53
2022-10-28T08:51:38.805Z,98286.00
2022-10-28T08:54:26.427Z,98281.34
2022-10-28T08:56:59.038Z,98284.50
2022-10-28T08:59:40.588Z,98290.75
2022-10-28T09:02:11.672Z,98294.31
2022-10-28T09:04:45.657Z,98298.22
2022-10-28T09:07:21.054Z,98287.53
2022-10-28T09:09:51.399Z,98273.53
2022-10-28T09:12:53.002Z,98273.53
2022-10-28T09:15:45.790Z,98249.25
2022-10-28T09:18:46.128Z,98269.31
2022-10-28T09:21:30.198Z,98280.63
2022-10-28T09:24:13.853Z,98273.81
2022-10-28T09:26:54.559Z,98257.28
2022-10-28T09:29:49.404Z,98272.41
2022-10-28T09:32:56.181Z,98273.97
2022-10-28T09:35:29.243Z,98284.34
2022-10-28T09:38:24.307Z,98282.19
2022-10-28T09:41:14.482Z,98272.13
2022-10-28T09:44:14.138Z,98271.91
2022-10-28T09:46:42.222Z,98267.91
2022-10-28T09:49:21.201Z,98267.28
2022-10-28T09:52:01.042Z,98272.88
2022-10-28T09:54:40.063Z,98273.66
2022-10-28T09:57:08.745Z,98274.84
2022-10-28T09:59:37.409Z,98277.78
2022-10-28T10:02:05.825Z,98277.69
2022-10-28T10:04:35.903Z,98278.28
2022-10-28T10:07:15.113Z,98284.94
2022-10-28T10:09:44.500Z,98277.47
2022-10-28T10:12:14.262Z,98281.63
2022-10-28T10:14:49.204Z,98274.53
2022-10-28T10:17:44.268Z,98260.72
2022-10-28T10:20:21.977Z,98249.16
2022-10-28T10:22:50.992Z,98237.69
2022-10-28T10:25:19.106Z,98240.41
2022-10-28T10:28:16.077Z,98257.06
2022-10-28T10:30:59.418Z,98267.63
2022-10-28T10:33:39.983Z,98277.56
2022-10-28T10:36:11.046Z,98278.03
2022-10-28T10:38:56.681Z,98284.66
2022-10-28T10:41:42.389Z,98282.84
2022-10-28T10:44:22.430Z,98293.25
2022-10-28T10:47:06.016Z,98296.00
2022-10-28T10:49:43.940Z,98309.34
2022-10-28T10:52:26.246Z,98294.09
2022-10-28T10:55:19.248Z,98281.09
2022-10-28T10:57:48.867Z,98273.75
2022-10-28T11:00:20.824Z,98273.28
2022-10-28T11:02:53.494Z,98268.97
2022-10-28T11:05:27.338Z,98266.47
2022-10-28T11:08:34.478Z,98268.25
2022-10-28T11:11:22.240Z,98265.13
2022-10-28T11:14:24.643Z,98264.66
2022-10-28T11:17:01.366Z,98272.94
2022-10-28T11:19:33.909Z,98262.53
2022-10-28T11:22:46.612Z,98256.03
2022-10-28T11:25:32.604Z,98263.13
2022-10-28T11:28:33.542Z,98254.84
2022-10-28T11:31:58.990Z,98241.91
2022-10-28T11:34:48.932Z,98245.53
2022-10-28T11:38:00.908Z,98235.59
2022-10-28T11:40:53.491Z,98240.22
2022-10-28T11:43:54.374Z,98243.97
2022-10-28T11:47:12.221Z,98227.94
2022-10-28T11:50:04.759Z,98230.31
2022-10-28T11:53:06.499Z,98233.41
2022-10-28T11:55:45.119Z,98226.44
2022-10-28T11:59:09.356Z,98226.81
2022-10-28T12:01:49.774Z,98207.22
2022-10-28T12:05:21.494Z,98208.19
2022-10-28T12:08:28.297Z,98209.47
2022-10-28T12:11:33.966Z,98215.19
2022-10-28T12:14:24.123Z,98210.31
2022-10-28T12:17:14.747Z,98213.88
2022-10-28T12:20:18.019Z,98209.38
2022-10-28T12:22:53.695Z,98212.81
2022-10-28T12:25:27.978Z,98213.16
2022-10-28T12:30:53.761Z,98204.91
2022-10-28T12:33:32.881Z,98201.81
2022-10-28T12:36:10.328Z,98208.13
2022-10-28T12:38:50.047Z,98200.63
2022-10-28T12:41:46.008Z,98205.38
2022-10-28T12:44:20.913Z,98203.09
2022-10-28T12:46:52.601Z,98187.94
2022-10-28T12:49:51.282Z,98203.66
2022-10-28T12:52:30.862Z,98194.78
2022-10-28T12:55:27.043Z,98201.41
2022-10-28T12:58:23.939Z,98193.91
2022-10-28T13:01:04.614Z,98183.13
2022-10-28T13:03:32.697Z,98186.19
2022-10-28T13:06:58.252Z,98181.69
2022-10-28T13:09:50.112Z,98190.88
2022-10-28T13:12:39.541Z,98194.53
2022-10-28T13:15:28.025Z,98183.16
2022-10-28T13:18:35.589Z,98181.09
2022-10-28T13:21:31.149Z,98180.19
2022-10-28T13:24:36.082Z,98184.50
2022-10-28T13:27:06.054Z,98187.16
2022-10-28T13:29:36.203Z,98181.59
2022-10-28T13:32:04.620Z,98177.34
2022-10-28T13:34:37.408Z,98174.47
2022-10-28T13:37:17.223Z,98180.31
2022-10-28T13:39:47.370Z,98176.00
2022-10-28T13:42:16.168Z,98184.53
2022-10-28T13:45:02.493Z,98182.38
2022-10-28T13:47:37.996Z,98172.88
2022-10-28T13:50:11.035Z,98187.34
2022-10-28T13:53:26.280Z,98184.94
2022-10-28T13:55:58.426Z,98180.41
2022-10-28T13:58:26.987Z,98181.22
2022-10-28T14:00:55.280Z,98181.22
2022-10-28T14:03:29.020Z,98188.06
2022-10-28T14:06:09.272Z,98197.34
2022-10-28T14:08:41.972Z,98179.63
2022-10-28T14:11:26.256Z,98187.56
2022-10-28T14:14:00.477Z,98193.28
2022-10-28T14:16:40.781Z,98189.97
2022-10-28T14:19:25.346Z,98199.81
2022-10-28T14:22:17.483Z,98206.59
2022-10-28T14:24:56.029Z,98198.66
2022-10-28T14:27:48.626Z,98204.69
2022-10-28T14:30:24.058Z,98201.38
2022-10-28T14:36:37.357Z,98211.66
2022-10-28T14:39:57.241Z,98205.31
2022-10-28T14:43:23.940Z,98213.41
2022-10-28T14:46:09.389Z,98214.41
2022-10-28T14:48:55.569Z,98219.19
2022-10-28T14:51:49.366Z,98219.69
2022-10-28T14:54:54.660Z,98216.63
2022-10-28T14:57:33.897Z,98210.19
2022-10-28T15:00:17.215Z,98209.59
2022-10-28T15:02:48.445Z,98208.81
2022-10-28T15:05:22.248Z,98203.25
2022-10-28T15:07:51.115Z,98194.75
2022-10-28T15:10:23.327Z,98194.16
2022-10-28T15:12:53.972Z,98190.84
2022-10-28T15:15:29.075Z,98186.16
2022-10-28T15:17:59.798Z,98183.44
2022-10-28T15:20:33.898Z,98189.69
2022-10-28T15:23:23.451Z,98191.59
2022-10-28T15:26:26.942Z,98184.75
2022-10-28T15:28:55.867Z,98185.00
2022-10-28T15:31:24.069Z,98181.34
2022-10-28T15:33:52.165Z,98182.91
2022-10-28T15:36:23.985Z,98172.47
2022-10-28T15:39:15.806Z,98178.16
2022-10-28T15:41:51.186Z,98182.47
2022-10-28T15:44:32.608Z,98174.44
2022-10-28T15:47:21.814Z,98181.69
2022-10-28T15:50:06.594Z,98176.72
2022-10-28T15:52:42.691Z,98177.44
2022-10-28T15:55:21.784Z,98180.91
2022-10-28T15:58:20.382Z,98177.47
2022-10-28T16:00:57.585Z,98184.25
2022-10-28T16:05:59.846Z,98186.66
2022-10-28T16:08:30.601Z,98189.72
2022-10-28T16:11:14.130Z,98187.72
2022-10-28T16:13:49.532Z,98191.75
2022-10-28T16:16:28.321Z,98192.59
2022-10-28T16:19:30.124Z,98187.41
2022-10-28T16:21:58.300Z,98198.16
2022-10-28T16:24:26.385Z,98198.50
2022-10-28T16:26:54.704Z,98206.53
2022-10-28T16:29:22.788Z,98205.63
2022-10-28T16:31:52.865Z,98210.13
2022-10-28T16:34:20.873Z,98208.94
2022-10-28T16:36:48.976Z,98210.22
2022-10-28T16:39:17.452Z,98216.13
2022-10-28T16:41:48.536Z,98221.00
2022-10-28T16:44:18.749Z,98222.84
2022-10-28T16:46:46.820Z,98230.44
2022-10-28T16:49:15.273Z,98224.16
2022-10-28T16:51:45.281Z,98227.13
2022-10-28T16:54:13.350Z,98226.06
2022-10-28T16:56:41.441Z,98229.59
2022-10-28T16:59:09.516Z,98220.63
2022-10-28T17:01:38.379Z,98220.41
2022-10-28T17:04:06.519Z,98218.72
2022-10-28T17:06:34.584Z,98217.06
2022-10-28T17:09:03.738Z,98218.97
2022-10-28T17:14:05.190Z,98218.38
2022-10-28T17:16:33.413Z,98219.66
2022-10-28T17:19:02.325Z,98217.78
2022-10-28T17:21:30.523Z,98216.94
2022-10-28T17:23:58.600Z,98225.13
2022-10-28T17:26:26.710Z,98225.34
2022-10-28T17:28:54.766Z,98224.75
2022-10-28T17:31:25.091Z,98224.97
2022-10-28T17:33:55.160Z,98224.97
2022-10-28T17:36:23.721Z,98227.47
2022-10-28T17:38:51.681Z,98232.09
2022-10-28T17:41:19.905Z,98233.72
2022-10-28T17:43:47.964Z,98239.38
2022-10-28T17:46:16.541Z,98244.00
2022-10-28T17:48:45.194Z,98241.28
2022-10-28T17:51:13.535Z,98236.66
2022-10-28T17:53:41.731Z,98238.81
2022-10-28T17:56:10.211Z,98234.66
2022-10-28T17:58:38.263Z,98242.22
2022-10-28T18:01:08.616Z,98241.41
2022-10-28T18:03:39.051Z,98242.47
2022-10-28T18:06:11.753Z,98237.97
2022-10-28T18:08:42.772Z,98238.56
2022-10-28T18:11:14.402Z,98243.19
2022-10-28T18:13:45.450Z,98237.97
2022-10-28T18:16:17.643Z,98238.81
2022-10-28T18:18:45.695Z,98241.28
2022-10-28T18:21:14.408Z,98247.56
2022-10-28T18:23:42.705Z,98247.31
2022-10-28T18:26:15.849Z,98243.78
2022-10-28T18:28:45.601Z,98250.63
2022-10-28T18:31:19.807Z,98253.84
2022-10-28T18:33:49.216Z,98244.25
2022-10-28T18:36:23.753Z,98242.38
2022-10-28T18:38:52.200Z,98239.97
2022-10-28T18:41:23.998Z,98247.31
2022-10-28T18:43:57.844Z,98252.75
2022-10-28T18:46:27.396Z,98241.50
2022-10-28T18:48:58.326Z,98246.56
2022-10-28T18:51:26.432Z,98250.38
2022-10-28T18:53:55.694Z,98252.72
2022-10-28T18:56:29.395Z,98254.00
2022-10-28T18:58:58.616Z,98247.13
2022-10-28T19:01:29.160Z,98252.34
2022-10-28T19:04:00.767Z,98262.63
2022-10-28T19:06:32.940Z,98253.47
2022-10-28T19:09:04.659Z,98260.94
2022-10-28T19:11:34.502Z,98261.41
2022-10-28T19:14:06.335Z,98254.91
2022-10-28T19:16:35.457Z,98254.28
2022-10-28T19:19:05.229Z,98251.81
2022-10-28T19:21:33.998Z,98249.09
2022-10-28T19:24:02.560Z,98239.75
2022-10-28T19:26:32.099Z,98243.53
2022-10-28T19:29:00.286Z,98243.75
2022-10-28T19:31:28.749Z,98249.41
2022-10-28T19:33:57.291Z,98252.00
2022-10-28T19:36:28.981Z,98250.44
2022-10-28T19:38:58.260Z,98247.94
2022-10-28T19:41:29.840Z,98248.41
2022-10-28T19:44:01.261Z,98257.84
2022-10-28T19:46:32.825Z,98250.16
2022-10-28T19:49:04.626Z,98251.91
2022-10-28T19:51:37.149Z,98247.16
2022-10-28T19:54:10.391Z,98255.78
2022-10-28T19:56:39.464Z,98248.28
2022-10-28T19:59:07.876Z,98247.91
2022-10-28T20:01:38.523Z,98243.16
2022-10-28T20:04:08.123Z,98248.22
2022-10-28T20:06:40.882Z,98255.34
2022-10-28T20:09:09.686Z,98251.16
2022-10-28T20:11:39.327Z,98256.00
2022-10-28T20:14:11.878Z,98263.91
2022-10-28T20:16:42.990Z,98260.38
2022-10-28T20:19:12.120Z,98257.50
2022-10-28T20:21:41.142Z,98273.97
2022-10-28T20:24:09.955Z,98266.69
2022-10-28T20:26:39.851Z,98267.13
2022-10-28T20:29:11.171Z,98266.09
2022-10-28T20:31:39.500Z,98267.94
2022-10-28T20:34:08.298Z,98269.25
2022-10-28T20:36:44.176Z,98269.25
2022-10-28T20:39:17.874Z,98275.50
2022-10-28T20:41:47.778Z,98271.34
2022-10-28T20:44:16.336Z,98277.00
2022-10-28T20:46:46.565Z,98281.91
2022-10-28T20:49:15.127Z,98286.56
2022-10-28T20:51:43.449Z,98285.75
2022-10-28T20:54:11.534Z,98281.38
2022-10-28T20:56:42.013Z,98285.16
2022-10-28T20:59:10.577Z,98284.91
2022-10-28T21:01:41.130Z,98299.53
2022-10-28T21:04:11.322Z,98303.53
2022-10-28T21:06:40.344Z,98304.66
2022-10-28T21:09:09.075Z,98310.59
2022-10-28T21:11:37.136Z,98313.34
2022-10-28T21:14:05.189Z,98306.53
2022-10-28T21:16:33.292Z,98303.50
2022-10-28T21:19:01.546Z,98303.72
2022-10-28T21:21:30.761Z,98307.53
2022-10-28T21:23:58.839Z,98308.63
2022-10-28T21:26:27.404Z,98318.91
2022-10-28T21:28:56.571Z,98321.66
2022-10-28T21:31:25.247Z,98314.22
2022-10-28T21:33:53.771Z,98318.47
2022-10-28T21:36:23.111Z,98312.66
2022-10-28T21:38:56.097Z,98312.91
2022-10-28T21:41:25.277Z,98310.00
2022-10-28T21:43:54.419Z,98308.75
2022-10-28T21:46:23.352Z,98309.81
2022-10-28T21:48:52.640Z,98301.72
2022-10-28T21:51:20.728Z,98306.72
2022-10-28T21:53:48.788Z,98304.06
2022-10-28T21:56:19.850Z,98303.66
2022-10-28T21:58:50.147Z,98317.81
2022-10-28T22:01:24.661Z,98308.84
2022-10-28T22:03:55.555Z,98316.38
2022-10-28T22:06:24.599Z,98312.22
2022-10-28T22:08:56.242Z,98318.03
2022-10-28T22:11:25.546Z,98316.38
2022-10-28T22:14:00.000Z,98316.16
2022-10-28T22:16:31.290Z,98321.56
2022-10-28T22:19:02.519Z,98320.94
2022-10-28T22:21:34.081Z,98318.41
2022-10-28T22:24:02.139Z,98332.81
2022-10-28T22:26:33.129Z,98337.38
2022-10-28T22:29:01.330Z,98325.53
2022-10-28T22:31:31.922Z,98330.09
2022-10-28T22:34:00.857Z,98330.53
2022-10-28T22:36:30.279Z,98333.88
2022-10-28T22:38:58.571Z,98328.69
2022-10-28T22:41:31.695Z,98331.41
2022-10-28T22:44:01.935Z,98330.75
2022-10-28T22:46:33.865Z,98340.34
2022-10-28T22:49:01.922Z,98352.41
2022-10-28T22:51:30.363Z,98356.38
2022-10-28T22:53:58.805Z,98355.13
2022-10-28T22:56:27.849Z,98358.28
2022-10-28T22:58:58.811Z,98358.88
2022-10-28T23:01:28.677Z,98349.69
2022-10-28T23:03:57.020Z,98347.41
2022-10-28T23:06:27.506Z,98352.41
2022-10-28T23:08:55.946Z,98356.78
2022-10-28T23:11:24.284Z,98357.81
2022-10-28T23:13:54.632Z,98354.28
2022-10-28T23:16:24.293Z,98346.34
2022-10-28T23:18:55.831Z,98349.28
2022-10-28T23:21:25.987Z,98343.66
2022-10-28T23:24:01.839Z,98340.94
2022-10-28T23:26:30.426Z,98346.56
2022-10-28T23:29:00.789Z,98345.94
2022-10-28T23:31:29.461Z,98344.06
2022-10-28T23:33:59.350Z,98351.94
2022-10-28T23:36:27.530Z,98342.53
2022-10-28T23:38:57.198Z,98341.72
2022-10-28T23:41:25.391Z,98344.81
2022-10-28T23:43:53.458Z,98346.06
2022-10-28T23:46:21.779Z,98345.81
2022-10-28T23:48:49.859Z,98352.28
2022-10-28T23:51:19.403Z,98353.72
2022-10-28T23:53:47.587Z,98346.88
2022-10-28T23:56:15.686Z,98337.44
2022-10-28T23:58:43.751Z,98342.03
